createdAt,value
2023-04-11T00:02:02.848Z,13.15
2023-04-11T00:04:29.381Z,13.05
2023-04-11T00:06:56.367Z,12.65
2023-04-11T00:09:22.911Z,11.40
2023-04-11T00:11:49.193Z,13.77
2023-04-11T00:14:15.471Z,12.50
2023-04-11T00:16:42.593Z,11.05
2023-04-11T00:19:09.462Z,18.08
2023-04-11T00:21:39.807Z,17.02
2023-04-11T00:24:09.290Z,12.93
2023-04-11T00:26:35.738Z,13.32
2023-04-11T00:29:02.050Z,14.48
2023-04-11T00:31:28.390Z,10.57
2023-04-11T00:33:54.721Z,12.85
2023-04-11T00:36:21.291Z,12.18
2023-04-11T00:38:47.911Z,16.20
2023-04-11T00:41:14.187Z,11.55
2023-04-11T00:43:40.544Z,13.50
2023-04-11T00:46:09.151Z,13.30
2023-04-11T00:48:35.827Z,15.55
2023-04-11T00:51:02.233Z,12.73
2023-04-11T00:53:32.557Z,12.68
2023-04-11T00:56:01.801Z,13.65
2023-04-11T00:58:28.556Z,12.43
2023-04-11T01:00:54.966Z,12.35
2023-04-11T01:03:24.287Z,16.35
2023-04-11T01:05:52.379Z,10.88
2023-04-11T01:08:19.633Z,13.10
2023-04-11T01:10:46.599Z,10.98
2023-04-11T01:13:12.964Z,10.90
2023-04-11T01:15:39.332Z,9.68
2023-04-11T01:18:07.822Z,16.77
2023-04-11T01:20:34.556Z,11.05
2023-04-11T01:23:02.441Z,11.52
2023-04-11T01:25:29.049Z,10.57
2023-04-11T01:27:56.450Z,10.13
2023-04-11T01:30:22.995Z,11.35
2023-04-11T01:32:50.669Z,10.63
2023-04-11T01:35:17.967Z,10.20
2023-04-11T01:37:44.386Z,10.85
2023-04-11T01:40:11.174Z,12.80
2023-04-11T01:42:38.144Z,10.45
2023-04-11T01:45:06.222Z,10.43
2023-04-11T01:47:32.688Z,9.52
2023-04-11T01:49:59.024Z,12.23
2023-04-11T01:52:25.335Z,11.82
2023-04-11T01:54:51.661Z,11.13
2023-04-11T01:57:17.952Z,11.55
2023-04-11T01:59:44.270Z,8.68
2023-04-11T02:02:11.165Z,10.75
2023-04-11T02:04:37.537Z,12.88
2023-04-11T02:07:03.857Z,12.32
2023-04-11T02:09:30.397Z,12.02
2023-04-11T02:11:57.036Z,10.48
2023-04-11T02:14:24.254Z,11.55
2023-04-11T02:16:51.356Z,8.80
2023-04-11T02:19:17.808Z,9.57
2023-04-11T02:21:44.835Z,14.05
2023-04-11T02:24:11.117Z,9.23
2023-04-11T02:26:37.415Z,10.68
2023-04-11T02:29:03.685Z,10.88
2023-04-11T02:31:30.087Z,14.55
2023-04-11T02:33:56.429Z,8.35
2023-04-11T02:36:22.972Z,8.88
2023-04-11T02:38:49.283Z,8.30
2023-04-11T02:41:15.583Z,9.48
2023-04-11T02:43:41.873Z,10.98
2023-04-11T02:46:12.670Z,10.25
2023-04-11T02:48:39.500Z,10.05
2023-04-11T02:51:05.970Z,9.33
2023-04-11T02:53:32.284Z,11.57
2023-04-11T02:55:58.645Z,8.77
2023-04-11T02:58:25.946Z,7.67
2023-04-11T03:00:52.280Z,6.75
2023-04-11T03:03:18.740Z,9.05
2023-04-11T03:05:45.188Z,10.30
2023-04-11T03:08:11.652Z,9.77
2023-04-11T03:10:37.959Z,7.70
2023-04-11T03:13:04.275Z,7.03
2023-04-11T03:15:32.309Z,13.25
2023-04-11T03:17:58.806Z,8.48
2023-04-11T03:20:25.180Z,6.35
2023-04-11T03:22:51.475Z,6.55
2023-04-11T03:25:17.766Z,7.50
2023-04-11T03:27:44.059Z,7.00
2023-04-11T03:30:10.728Z,7.40
2023-04-11T03:32:37.103Z,7.07
2023-04-11T03:35:03.505Z,7.18
2023-04-11T03:37:29.991Z,6.88
2023-04-11T03:39:56.365Z,6.57
2023-04-11T03:42:22.687Z,8.43
2023-04-11T03:44:48.981Z,12.20
2023-04-11T03:47:15.365Z,9.98
2023-04-11T03:49:41.666Z,8.68
2023-04-11T03:52:09.696Z,6.38
2023-04-11T03:54:37.497Z,7.55
2023-04-11T03:57:03.855Z,8.45
2023-04-11T03:59:30.143Z,8.65
2023-04-11T04:01:56.507Z,5.88
2023-04-11T04:04:22.984Z,5.93
2023-04-11T04:06:49.354Z,5.75
2023-04-11T04:09:15.739Z,6.95
2023-04-11T04:11:42.068Z,7.53
2023-04-11T04:14:08.448Z,6.43
2023-04-11T04:16:34.825Z,6.05
2023-04-11T04:19:02.473Z,6.88
2023-04-11T04:21:32.843Z,9.57
2023-04-11T04:24:03.711Z,9.45
2023-04-11T04:26:31.208Z,13.88
2023-04-11T04:29:04.331Z,7.13
2023-04-11T04:31:33.612Z,7.13
2023-04-11T04:34:08.468Z,5.63
2023-04-11T04:36:46.144Z,6.82
2023-04-11T04:39:17.383Z,10.53
2023-04-11T04:41:48.636Z,9.13
2023-04-11T04:44:15.993Z,8.77
2023-04-11T04:46:42.535Z,10.13
2023-04-11T04:49:08.869Z,7.80
2023-04-11T04:51:35.991Z,7.33
2023-04-11T04:54:02.508Z,5.65
2023-04-11T04:56:30.450Z,7.07
2023-04-11T04:58:56.990Z,7.67
2023-04-11T05:01:26.512Z,8.27
2023-04-11T05:04:00.010Z,9.18
2023-04-11T05:06:32.040Z,7.07
2023-04-11T05:09:02.066Z,8.05
2023-04-11T05:11:29.016Z,8.73
2023-04-11T05:13:55.763Z,7.60
2023-04-11T05:16:22.342Z,8.40
2023-04-11T05:18:48.691Z,8.43
2023-04-11T05:21:15.366Z,8.57
2023-04-11T05:23:41.671Z,8.73
2023-04-11T05:26:08.765Z,9.27
2023-04-11T05:28:35.330Z,13.98
2023-04-11T05:31:02.232Z,12.87
2023-04-11T05:33:28.865Z,12.32
2023-04-11T05:35:55.633Z,12.02
2023-04-11T05:38:21.955Z,12.38
2023-04-11T05:40:48.281Z,12.95
2023-04-11T05:43:15.211Z,13.55
2023-04-11T05:45:41.721Z,15.20
2023-04-11T05:48:08.298Z,8.73
2023-04-11T05:50:35.151Z,12.38
2023-04-11T05:53:01.546Z,12.90
2023-04-11T05:55:27.845Z,10.80
2023-04-11T05:57:54.151Z,16.80
2023-04-11T06:00:20.848Z,11.20
2023-04-11T06:02:49.225Z,13.85
2023-04-11T06:05:17.773Z,13.95
2023-04-11T06:07:44.669Z,15.35
2023-04-11T06:10:11.252Z,12.18
2023-04-11T06:12:37.589Z,13.27
2023-04-11T06:15:04.110Z,9.52
2023-04-11T06:17:30.579Z,15.30
2023-04-11T06:19:56.967Z,23.83
2023-04-11T06:22:23.259Z,13.80
2023-04-11T06:24:49.572Z,9.65
2023-04-11T06:27:15.879Z,14.38
2023-04-11T06:29:43.578Z,14.90
2023-04-11T06:32:11.235Z,15.88
2023-04-11T06:34:40.307Z,22.63
2023-04-11T06:37:06.966Z,23.20
2023-04-11T06:39:34.466Z,19.13
2023-04-11T06:42:01.416Z,22.48
2023-04-11T06:44:28.022Z,27.40
2023-04-11T06:46:54.816Z,21.67
2023-04-11T06:49:21.289Z,12.75
2023-04-11T06:51:49.960Z,16.13
2023-04-11T06:54:16.947Z,23.25
2023-04-11T06:56:43.400Z,26.92
2023-04-11T06:59:09.713Z,7.82
2023-04-11T07:01:37.590Z,5.07
2023-04-11T07:04:04.474Z,5.20
2023-04-11T07:06:31.579Z,6.38
2023-04-11T07:08:58.171Z,6.25
2023-04-11T07:11:24.451Z,6.13
2023-04-11T07:13:50.975Z,11.70
2023-04-11T07:16:17.295Z,5.80
2023-04-11T07:18:43.887Z,11.88
2023-04-11T07:21:13.558Z,4.82
2023-04-11T07:23:40.356Z,7.00
2023-04-11T07:26:09.032Z,12.55
2023-04-11T07:28:37.615Z,6.05
2023-04-11T07:31:13.888Z,25.55
2023-04-11T07:33:42.982Z,8.93
2023-04-11T07:36:09.526Z,5.88
2023-04-11T07:38:37.563Z,9.60
2023-04-11T07:41:04.735Z,7.97
2023-04-11T07:43:31.970Z,5.70
2023-04-11T07:45:58.937Z,11.25
2023-04-11T07:48:26.913Z,7.47
2023-04-11T07:50:53.586Z,17.75
2023-04-11T07:53:21.067Z,10.27
2023-04-11T07:55:47.435Z,7.03
2023-04-11T07:58:13.735Z,7.13
2023-04-11T08:00:40.057Z,6.70
2023-04-11T08:03:07.729Z,6.13
2023-04-11T08:05:34.784Z,5.53
2023-04-11T08:08:01.751Z,4.75
2023-04-11T08:10:28.052Z,15.20
2023-04-11T08:12:54.891Z,6.47
2023-04-11T08:15:21.300Z,13.43
2023-04-11T08:17:49.663Z,5.18
2023-04-11T08:20:16.544Z,4.90
2023-04-11T08:22:44.805Z,37.63
2023-04-11T08:25:12.269Z,6.60
2023-04-11T08:27:38.986Z,16.42
2023-04-11T08:30:08.320Z,6.93
2023-04-11T08:32:34.950Z,5.70
2023-04-11T08:35:01.309Z,6.15
2023-04-11T08:37:27.778Z,3.47
2023-04-11T08:39:54.067Z,20.55
2023-04-11T08:42:24.277Z,4.43
2023-04-11T08:44:52.401Z,4.53
2023-04-11T08:47:18.752Z,4.97
2023-04-11T08:49:45.092Z,4.53
2023-04-11T08:52:11.376Z,3.63
2023-04-11T08:54:37.652Z,21.08
2023-04-11T08:57:03.994Z,7.10
2023-04-11T08:59:30.438Z,11.52
2023-04-11T09:02:08.143Z,7.68
2023-04-11T09:04:41.426Z,11.27
2023-04-11T09:07:07.980Z,41.78
2023-04-11T09:09:38.038Z,7.88
2023-04-11T09:12:04.425Z,5.70
2023-04-11T09:14:31.218Z,9.57
2023-04-11T09:16:58.600Z,5.65
2023-04-11T09:19:28.825Z,16.77
2023-04-11T09:21:56.797Z,5.90
2023-04-11T09:24:23.376Z,8.63
2023-04-11T09:26:50.565Z,8.50
2023-04-11T09:29:36.299Z,6.68
2023-04-11T09:34:29.236Z,61.20
2023-04-11T09:36:56.224Z,4.93
2023-04-11T09:39:22.794Z,19.10
2023-04-11T09:41:49.124Z,17.35
2023-04-11T09:44:15.895Z,10.70
2023-04-11T09:46:58.216Z,28.05
2023-04-11T09:49:24.693Z,29.30
2023-04-11T09:51:54.050Z,10.88
2023-04-11T09:54:20.827Z,6.82
2023-04-11T09:56:47.355Z,4.88
2023-04-11T09:59:14.738Z,18.30
2023-04-11T10:01:41.439Z,28.50
2023-04-11T10:04:10.672Z,5.70
2023-04-11T10:06:41.391Z,8.88
2023-04-11T10:09:09.409Z,7.88
2023-04-11T10:11:36.118Z,6.40
2023-04-11T10:14:02.495Z,7.10
2023-04-11T10:16:32.338Z,22.65
2023-04-11T10:18:58.641Z,66.18
2023-04-11T10:21:30.999Z,5.13
2023-04-11T10:24:17.497Z,11.05
2023-04-11T10:26:50.567Z,7.40
2023-04-11T10:29:29.780Z,7.13
2023-04-11T10:32:14.268Z,15.10
2023-04-11T10:35:00.608Z,11.05
2023-04-11T10:37:29.803Z,9.98
2023-04-11T10:40:00.709Z,14.18
2023-04-11T10:42:27.580Z,16.45
2023-04-11T10:45:12.462Z,11.77
2023-04-11T10:47:38.927Z,5.93
2023-04-11T10:50:28.774Z,9.23
2023-04-11T10:52:55.942Z,7.10
2023-04-11T10:55:22.668Z,6.60
2023-04-11T10:58:08.439Z,4.13
2023-04-11T11:01:01.184Z,6.40
2023-04-11T11:03:34.147Z,18.67
2023-04-11T11:06:01.587Z,5.00
2023-04-11T11:08:30.428Z,3.42
2023-04-11T11:11:01.352Z,4.72
2023-04-11T11:13:40.404Z,4.13
2023-04-11T11:16:07.538Z,6.82
2023-04-11T11:18:34.282Z,5.15
2023-04-11T11:21:01.009Z,6.53
2023-04-11T11:23:27.345Z,5.30
2023-04-11T11:25:57.416Z,6.90
2023-04-11T11:28:24.127Z,4.90
2023-04-11T11:30:55.750Z,5.50
2023-04-11T11:33:26.685Z,5.10
2023-04-11T11:36:03.604Z,7.68
2023-04-11T11:38:30.404Z,5.63
2023-04-11T11:40:57.692Z,6.20
2023-04-11T11:43:27.245Z,7.28
2023-04-11T11:46:10.390Z,23.00
2023-04-11T11:48:36.949Z,6.60
2023-04-11T11:51:03.342Z,6.35
2023-04-11T11:53:29.679Z,5.97
2023-04-11T11:55:56.759Z,4.10
2023-04-11T11:58:23.171Z,6.57
2023-04-11T12:00:50.371Z,6.72
2023-04-11T12:03:18.317Z,5.78
2023-04-11T12:05:44.756Z,5.18
2023-04-11T12:08:11.074Z,5.05
2023-04-11T12:10:40.514Z,5.95
2023-04-11T12:13:18.977Z,4.68
2023-04-11T12:15:49.091Z,7.65
2023-04-11T12:18:15.572Z,6.63
2023-04-11T12:20:42.096Z,5.15
2023-04-11T12:23:08.534Z,9.13
2023-04-11T12:25:34.853Z,6.47
2023-04-11T12:28:01.288Z,4.30
2023-04-11T12:30:29.522Z,5.43
2023-04-11T12:32:56.484Z,11.68
2023-04-11T12:35:22.857Z,5.60
2023-04-11T12:37:49.174Z,6.15
2023-04-11T12:40:15.512Z,6.65
2023-04-11T12:42:53.144Z,9.88
2023-04-11T12:45:22.049Z,7.22
2023-04-11T12:47:48.386Z,8.30
2023-04-11T12:50:14.709Z,6.00
2023-04-11T12:52:41.497Z,4.90
2023-04-11T12:55:09.364Z,5.70
2023-04-11T12:57:36.805Z,8.02
2023-04-11T13:00:07.165Z,7.50
2023-04-11T13:02:42.049Z,11.18
2023-04-11T13:05:11.142Z,8.38
2023-04-11T13:07:37.874Z,7.80
2023-04-11T13:10:04.543Z,9.27
2023-04-11T13:12:31.371Z,8.27
2023-04-11T13:14:57.710Z,5.60
2023-04-11T13:17:24.260Z,8.48
2023-04-11T13:19:50.987Z,7.90
2023-04-11T13:22:17.301Z,9.38
2023-04-11T13:24:43.587Z,11.07
2023-04-11T13:27:09.868Z,11.13
2023-04-11T13:29:36.242Z,10.02
2023-04-11T13:32:02.647Z,11.25
2023-04-11T13:34:29.518Z,13.50
2023-04-11T13:36:55.945Z,6.53
2023-04-11T13:39:22.511Z,6.85
2023-04-11T13:41:48.840Z,15.52
2023-04-11T13:44:15.137Z,11.88
2023-04-11T13:46:41.459Z,20.25
2023-04-11T13:49:07.789Z,7.38
2023-04-11T13:51:34.190Z,7.35
2023-04-11T13:54:00.950Z,11.60
2023-04-11T13:56:27.268Z,12.10
2023-04-11T13:58:53.569Z,16.02
2023-04-11T14:01:20.169Z,7.75
2023-04-11T14:03:47.020Z,4.57
2023-04-11T14:06:13.385Z,6.22
2023-04-11T14:08:39.792Z,5.70
2023-04-11T14:11:06.595Z,5.40
2023-04-11T14:13:32.959Z,6.57
2023-04-11T14:16:08.160Z,5.72
2023-04-11T14:18:35.812Z,8.73
2023-04-11T14:21:02.325Z,6.18
2023-04-11T14:23:29.245Z,7.60
2023-04-11T14:25:55.892Z,9.60
2023-04-11T14:28:22.304Z,7.43
2023-04-11T14:30:48.771Z,17.00
2023-04-11T14:33:15.586Z,9.52
2023-04-11T14:35:42.780Z,8.65
2023-04-11T14:38:09.142Z,5.03
2023-04-11T14:40:35.430Z,16.90
2023-04-11T14:43:01.764Z,6.43
2023-04-11T14:45:28.125Z,9.90
2023-04-11T14:47:54.547Z,15.32
2023-04-11T14:50:21.006Z,15.60
2023-04-11T14:52:48.293Z,9.05
2023-04-11T14:55:14.648Z,7.68
2023-04-11T14:57:45.676Z,19.17
2023-04-11T15:00:18.071Z,24.20
2023-04-11T15:02:44.830Z,13.95
2023-04-11T15:05:11.511Z,17.08
2023-04-11T15:07:37.800Z,20.17
2023-04-11T15:10:04.258Z,24.98
2023-04-11T15:12:30.700Z,25.33
2023-04-11T15:14:56.998Z,29.77
2023-04-11T15:17:23.307Z,24.65
2023-04-11T15:19:49.673Z,24.90
2023-04-11T15:22:15.977Z,27.30
2023-04-11T15:24:42.391Z,26.15
2023-04-11T15:27:08.705Z,25.10
2023-04-11T15:29:36.376Z,43.50
2023-04-11T15:32:02.800Z,22.42
2023-04-11T15:34:29.230Z,31.90
2023-04-11T15:36:56.729Z,32.70
2023-04-11T15:39:23.205Z,45.33
2023-04-11T15:41:49.517Z,47.40
2023-04-11T15:44:16.065Z,60.13
2023-04-11T15:46:42.450Z,66.55
2023-04-11T15:49:08.793Z,65.63
2023-04-11T15:51:35.126Z,66.38
2023-04-11T15:54:01.740Z,67.20
2023-04-11T15:56:28.297Z,82.88
2023-04-11T15:58:54.596Z,79.70
2023-04-11T16:01:25.556Z,83.05
2023-04-11T16:03:52.316Z,109.00
2023-04-11T16:06:19.886Z,98.18
2023-04-11T16:08:46.223Z,108.75
2023-04-11T16:11:12.522Z,118.35
2023-04-11T16:13:39.088Z,114.50
2023-04-11T16:16:05.684Z,136.13
2023-04-11T16:18:32.012Z,130.27
2023-04-11T16:20:58.308Z,108.35
2023-04-11T16:23:24.617Z,134.13
2023-04-11T16:25:51.188Z,128.63
2023-04-11T16:28:17.476Z,117.80
2023-04-11T16:30:43.838Z,135.15
2023-04-11T16:33:10.435Z,130.02
2023-04-11T16:35:36.855Z,148.25
2023-04-11T16:38:04.248Z,133.75
2023-04-11T16:40:31.760Z,116.65
2023-04-11T16:42:58.134Z,147.88
2023-04-11T16:45:24.471Z,136.88
2023-04-11T16:47:50.817Z,127.80
2023-04-11T16:50:17.964Z,135.43
2023-04-11T16:52:44.479Z,131.93
2023-04-11T16:55:11.094Z,150.90
2023-04-11T16:57:37.505Z,131.75
2023-04-11T17:00:10.097Z,137.48
2023-04-11T17:02:36.546Z,55.60
2023-04-11T17:05:04.154Z,84.40
2023-04-11T17:07:30.507Z,74.30
2023-04-11T17:09:56.933Z,74.78
2023-04-11T17:12:23.218Z,77.38
2023-04-11T17:14:49.855Z,80.95
2023-04-11T17:17:16.235Z,74.05
2023-04-11T17:19:42.814Z,74.88
2023-04-11T17:22:09.136Z,83.80
2023-04-11T17:24:35.713Z,83.75
2023-04-11T17:27:02.265Z,75.65
2023-04-11T17:29:28.973Z,83.10
2023-04-11T17:31:55.289Z,94.65
2023-04-11T17:34:21.593Z,103.68
2023-04-11T17:36:47.929Z,77.60
2023-04-11T17:39:17.841Z,101.60
2023-04-11T17:41:45.364Z,100.30
2023-04-11T17:44:11.838Z,93.68
2023-04-11T17:46:38.257Z,92.60
2023-04-11T17:49:04.640Z,86.50
2023-04-11T17:51:31.466Z,89.90
2023-04-11T17:53:57.952Z,92.13
2023-04-11T17:56:24.585Z,91.28
2023-04-11T17:58:50.916Z,92.32
2023-04-11T18:01:18.109Z,85.75
2023-04-11T18:03:44.668Z,77.35
2023-04-11T18:06:11.205Z,65.13
2023-04-11T18:08:50.484Z,65.18
2023-04-11T18:11:17.677Z,69.68
2023-04-11T18:13:44.187Z,63.15
2023-04-11T18:16:11.124Z,39.03
2023-04-11T18:18:37.597Z,33.53
2023-04-11T18:21:06.693Z,34.80
2023-04-11T18:23:33.828Z,40.00
2023-04-11T18:26:00.202Z,38.92
2023-04-11T18:28:26.697Z,23.05
2023-04-11T18:30:53.270Z,38.75
2023-04-11T18:33:20.704Z,34.95
2023-04-11T18:35:47.388Z,32.67
2023-04-11T18:38:14.171Z,17.83
2023-04-11T18:40:40.738Z,33.90
2023-04-11T18:43:07.170Z,35.53
2023-04-11T18:45:33.629Z,28.98
2023-04-11T18:48:00.491Z,29.73
2023-04-11T18:50:29.120Z,35.47
2023-04-11T18:52:57.287Z,30.98
2023-04-11T18:55:24.570Z,24.40
2023-04-11T18:57:53.689Z,21.05
2023-04-11T19:00:23.905Z,23.05
2023-04-11T19:02:50.923Z,25.98
2023-04-11T19:05:19.157Z,28.88
2023-04-11T19:07:45.866Z,30.45
2023-04-11T19:10:12.263Z,32.58
2023-04-11T19:12:38.808Z,27.65
2023-04-11T19:15:06.537Z,23.13
2023-04-11T19:17:34.047Z,25.00
2023-04-11T19:20:02.122Z,16.42
2023-04-11T19:22:28.470Z,23.00
2023-04-11T19:24:54.842Z,28.50
2023-04-11T19:27:22.530Z,22.23
2023-04-11T19:29:48.856Z,28.17
2023-04-11T19:32:17.641Z,23.05
2023-04-11T19:34:44.165Z,19.08
2023-04-11T19:37:10.476Z,17.23
2023-04-11T19:39:39.004Z,16.73
2023-04-11T19:42:06.796Z,14.20
2023-04-11T19:44:33.121Z,11.98
2023-04-11T19:46:59.409Z,13.75
2023-04-11T19:49:25.705Z,16.85
2023-04-11T19:51:52.495Z,13.70
2023-04-11T19:54:18.800Z,13.38
2023-04-11T19:56:45.514Z,12.73
2023-04-11T19:59:11.897Z,12.20
2023-04-11T20:01:38.300Z,8.82
2023-04-11T20:04:04.820Z,12.73
2023-04-11T20:06:34.647Z,11.77
2023-04-11T20:09:01.558Z,12.52
2023-04-11T20:11:29.213Z,7.53
2023-04-11T20:13:55.911Z,11.52
2023-04-11T20:16:24.802Z,7.20
2023-04-11T20:18:52.331Z,10.02
2023-04-11T20:21:18.664Z,11.75
2023-04-11T20:23:44.982Z,11.23
2023-04-11T20:26:11.344Z,8.77
2023-04-11T20:28:37.915Z,7.95
2023-04-11T20:31:04.786Z,7.90
2023-04-11T20:33:31.493Z,5.25
2023-04-11T20:35:57.871Z,5.65
2023-04-11T20:38:24.182Z,5.70
2023-04-11T20:40:50.598Z,7.50
2023-04-11T20:43:17.469Z,6.13
2023-04-11T20:45:45.628Z,77.00
2023-04-11T20:48:13.013Z,6.30
2023-04-11T20:50:40.889Z,7.22
2023-04-11T20:53:07.756Z,6.63
2023-04-11T20:55:34.064Z,7.57
2023-04-11T20:58:00.436Z,6.68
2023-04-11T21:00:27.005Z,7.47
2023-04-11T21:02:53.734Z,156.27
2023-04-11T21:05:24.957Z,14.85
2023-04-11T21:07:54.340Z,5.38
2023-04-11T21:10:21.067Z,5.78
2023-04-11T21:12:51.533Z,6.88
2023-04-11T21:15:19.765Z,6.55
2023-04-11T21:17:46.253Z,6.82
2023-04-11T21:20:20.025Z,6.45
2023-04-11T21:22:53.056Z,5.18
2023-04-11T21:25:19.557Z,6.50
2023-04-11T21:27:46.511Z,6.95
2023-04-11T21:30:13.351Z,5.40
2023-04-11T21:32:40.336Z,5.70
2023-04-11T21:35:07.877Z,5.75
2023-04-11T21:37:34.293Z,5.55
2023-04-11T21:40:00.969Z,6.20
2023-04-11T21:42:27.346Z,6.55
2023-04-11T21:44:53.652Z,4.75
2023-04-11T21:47:20.212Z,6.47
2023-04-11T21:49:46.887Z,5.80
2023-04-11T21:52:13.168Z,5.13
2023-04-11T21:54:39.506Z,4.63
2023-04-11T21:57:05.804Z,7.00
2023-04-11T21:59:34.000Z,5.75
2023-04-11T22:02:00.433Z,5.50
2023-04-11T22:04:28.873Z,6.18
2023-04-11T22:06:58.406Z,5.82
2023-04-11T22:09:24.840Z,5.63
2023-04-11T22:11:51.391Z,7.05
2023-04-11T22:14:18.116Z,6.70
2023-04-11T22:16:50.501Z,5.60
2023-04-11T22:19:20.786Z,5.68
2023-04-11T22:21:56.289Z,5.93
2023-04-11T22:24:30.154Z,5.55
2023-04-11T22:26:58.134Z,5.88
2023-04-11T22:29:26.151Z,5.35
2023-04-11T22:31:52.779Z,8.35
2023-04-11T22:34:19.163Z,9.10
2023-04-11T22:36:45.456Z,7.75
2023-04-11T22:39:11.824Z,7.53
2023-04-11T22:41:38.691Z,8.32
2023-04-11T22:44:08.404Z,12.10
2023-04-11T22:46:38.467Z,13.70
2023-04-11T22:49:06.577Z,15.48
2023-04-11T22:51:32.960Z,14.57
2023-04-11T22:53:59.522Z,17.13
2023-04-11T22:56:26.003Z,16.17
2023-04-11T22:58:52.424Z,11.70
2023-04-11T23:01:18.907Z,21.20
2023-04-11T23:03:45.290Z,22.92
2023-04-11T23:06:12.720Z,27.05
2023-04-11T23:08:38.984Z,20.17
2023-04-11T23:11:05.530Z,19.90
2023-04-11T23:13:32.139Z,18.88
2023-04-11T23:16:01.430Z,20.30
2023-04-11T23:18:27.812Z,18.40
2023-04-11T23:20:54.097Z,13.88
2023-04-11T23:23:20.571Z,21.30
2023-04-11T23:25:46.935Z,20.58
2023-04-11T23:28:13.331Z,13.63
2023-04-11T23:30:40.349Z,19.40
2023-04-11T23:33:08.649Z,18.35
2023-04-11T23:35:35.393Z,20.25
2023-04-11T23:38:02.534Z,20.02
2023-04-11T23:40:29.666Z,18.98
2023-04-11T23:42:57.300Z,21.65
2023-04-11T23:45:23.798Z,13.38
2023-04-11T23:47:50.508Z,21.52
2023-04-11T23:50:17.152Z,21.75
2023-04-11T23:52:43.894Z,12.00
2023-04-11T23:55:10.505Z,11.55
2023-04-11T23:57:36.800Z,19.08
